Data for 03/21/2017

Time Sea-Level Adjusted Pressure Absolute Pressure Temperature Relative Humidity Dew Point   
(mb) (inHg) (mb) (inHg) (C) (F) (%) (C) (F)
00:05 1022 30.18 851 25.13 0.3 32.6 80 -2.8 27
00:10 1022 30.18 851 25.13 0.2 32.4 80 -2.7 27.1
00:15 1022 30.18 851 25.13 0.2 32.4 81 -2.7 27.2
00:20 1022 30.18 851 25.13 0.2 32.3 82 -2.6 27.3
00:25 1022 30.18 851 25.13 0.1 32.2 82 -2.6 27.4
00:30 1022 30.18 851 25.13 0.1 32.1 82 -2.6 27.4
00:35 1022 30.18 851 25.13 0.1 32.1 83 -2.6 27.4
00:40 1022 30.18 851 25.13 0 32.1 83 -2.6 27.3
00:45 1021 30.15 851 25.13 0 32 83 -2.5 27.4
00:50 1021 30.15 851 25.13 -0 32 83 -2.5 27.4
00:55 1021 30.15 851 25.13 -0.1 31.9 83 -2.5 27.4
01:00 1022 30.18 851 25.13 -0.2 31.7 84 -2.5 27.4
01:05 1022 30.18 851 25.13 -0.2 31.6 84 -2.5 27.4
01:10 1022 30.18 851 25.13 -0.3 31.5 85 -2.4 27.6
01:15 1022 30.18 851 25.13 -0.4 31.4 86 -2.4 27.6
01:20 1022 30.18 851 25.13 -0.4 31.3 86 -2.5 27.5
01:25 1022 30.18 851 25.13 -0.4 31.2 85 -2.6 27.4
01:30 1022 30.18 851 25.13 -0.5 31.1 86 -2.6 27.3
01:35 1022 30.18 851 25.13 -0.6 31 86 -2.6 27.4
01:40 1022 30.18 851 25.13 -0.6 30.9 87 -2.5 27.4
01:45 1022 30.18 851 25.13 -0.7 30.8 87 -2.6 27.3
01:50 1021 30.15 851 25.13 -0.7 30.8 87 -2.6 27.3
01:55 1021 30.15 851 25.13 -0.7 30.7 87 -2.6 27.3
02:00 1021 30.15 850 25.1 -0.8 30.6 87 -2.7 27.2
02:05 1021 30.15 851 25.13 -0.8 30.6 87 -2.7 27.2
02:10 1021 30.15 850 25.1 -0.8 30.5 87 -2.7 27.1
02:15 1021 30.15 850 25.1 -0.9 30.4 87 -2.8 27
02:20 1021 30.15 850 25.1 -0.9 30.4 87 -2.7 27.1
02:25 1021 30.15 850 25.1 -0.9 30.3 87 -2.8 26.9
02:30 1021 30.15 850 25.1 -0.9 30.3 87 -2.8 27
02:35 1021 30.15 850 25.1 -0.9 30.3 87 -2.8 27
02:40 1021 30.15 850 25.1 -1 30.3 87 -2.8 26.9
02:45 1021 30.15 850 25.1 -1 30.3 87 -2.9 26.9
02:50 1021 30.15 850 25.1 -1 30.3 87 -2.9 26.7
02:55 1021 30.15 850 25.1 -1 30.3 86 -3 26.6
03:00 1021 30.15 850 25.1 -1 30.3 86 -3 26.6
03:05 1021 30.15 850 25.1 -1 30.3 86 -3.1 26.5
03:10 1021 30.15 850 25.1 -1 30.3 85 -3.1 26.4
03:15 1021 30.15 850 25.1 -1 30.3 85 -3.2 26.3
03:20 1021 30.15 850 25.1 -0.9 30.4 85 -3.2 26.3
03:25 1021 30.15 850 25.1 -0.9 30.3 84 -3.3 26.1
03:30 1021 30.15 850 25.1 -0.9 30.3 84 -3.3 26.1
03:35 1021 30.15 850 25.1 -0.9 30.3 84 -3.3 26
03:40 1021 30.15 850 25.1 -0.9 30.4 83 -3.4 25.9
03:45 1021 30.15 850 25.1 -0.9 30.4 83 -3.4 25.9
03:50 1021 30.15 850 25.1 -0.9 30.4 83 -3.4 25.8
03:55 1021 30.15 850 25.1 -0.9 30.4 83 -3.5 25.8
04:00 1021 30.15 850 25.1 -0.8 30.5 82 -3.5 25.8
04:05 1021 30.15 850 25.1 -0.9 30.4 83 -3.4 25.8
04:10 1021 30.15 850 25.1 -0.9 30.4 83 -3.4 25.8
04:15 1021 30.15 850 25.1 -0.9 30.4 83 -3.5 25.7
04:20 1021 30.15 850 25.1 -0.9 30.4 83 -3.5 25.7
04:25 1021 30.15 850 25.1 -0.9 30.4 83 -3.5 25.7
04:30 1021 30.15 850 25.1 -0.9 30.4 82 -3.5 25.6
04:35 1021 30.15 850 25.1 -0.9 30.4 82 -3.6 25.6
04:40 1021 30.15 850 25.1 -0.9 30.4 82 -3.5 25.6
04:45 1021 30.15 850 25.1 -0.9 30.4 82 -3.5 25.6
04:50 1021 30.15 850 25.1 -0.9 30.4 82 -3.5 25.7
04:55 1021 30.15 850 25.1 -0.9 30.4 82 -3.6 25.5
05:00 1021 30.15 850 25.1 -1 30.3 82 -3.6 25.5
05:05 1021 30.15 850 25.1 -1 30.2 82 -3.6 25.4
05:10 1021 30.15 850 25.1 -1 30.1 82 -3.7 25.3
05:15 1021 30.15 850 25.1 -1.1 30.1 82 -3.7 25.3
05:20 1021 30.15 850 25.1 -1.1 30 82 -3.8 25.2
05:25 1021 30.15 850 25.1 -1.2 29.9 82 -3.8 25.2
05:30 1020 30.12 850 25.1 -1.2 29.8 82 -3.9 25.1
05:35 1020 30.12 849 25.07 -1.3 29.6 83 -3.9 25
05:40 1020 30.12 849 25.07 -1.4 29.6 82 -4 24.8
05:45 1020 30.12 849 25.07 -1.4 29.6 82 -4 24.8
05:50 1020 30.12 849 25.07 -1.4 29.5 82 -4 24.8
05:55 1020 30.12 849 25.07 -1.4 29.5 82 -4 24.8
06:00 1020 30.12 849 25.07 -1.4 29.5 82 -4 24.8
06:05 1020 30.12 849 25.07 -1.4 29.5 83 -4 24.8
06:10 1020 30.12 849 25.07 -1.4 29.5 83 -3.9 24.9
06:15 1020 30.12 849 25.07 -1.4 29.4 83 -4 24.8
06:20 1020 30.12 849 25.07 -1.4 29.5 83 -4 24.9
06:25 1020 30.12 849 25.07 -1.4 29.4 83 -4 24.8
06:30 1020 30.12 849 25.07 -1.4 29.5 82 -4 24.7
06:35 1020 30.12 849 25.07 -1.4 29.5 82 -4 24.8
06:40 1020 30.12 849 25.07 -1.4 29.5 82 -4 24.8
06:45 1020 30.12 849 25.07 -1.4 29.6 82 -4.1 24.7
06:50 1020 30.12 849 25.07 -1.4 29.6 82 -4 24.7
06:55 1020 30.12 849 25.07 -1.4 29.5 82 -4.1 24.7
07:00 1020 30.12 849 25.07 -1.4 29.4 82 -4.1 24.7
07:05 1020 30.12 849 25.07 -1.4 29.4 83 -4 24.7
07:10 1020 30.12 849 25.07 -1.5 29.4 82 -4.1 24.7
07:15 1020 30.12 849 25.07 -1.4 29.5 82 -4.1 24.7
07:20 1020 30.12 849 25.07 -1.3 29.6 82 -4.1 24.7
07:25 1020 30.12 849 25.07 -1.3 29.6 82 -4 24.7
07:30 1020 30.12 849 25.07 -1.2 29.8 81 -4.1 24.7
07:35 1020 30.12 849 25.07 -1.1 30.1 80 -4 24.7
07:40 1020 30.12 849 25.07 -1.1 30.1 80 -4.1 24.6
07:45 1020 30.12 849 25.07 -0.8 30.5 79 -4.1 24.6
07:50 1020 30.12 849 25.07 -0.7 30.7 79 -4 24.8
07:55 1020 30.12 849 25.07 -0.7 30.7 79 -4 24.8
08:00 1020 30.12 849 25.07 -0.7 30.8 78 -4 24.8
08:05 1020 30.12 849 25.07 -0.5 31.1 78 -3.9 24.9
08:10 1020 30.12 849 25.07 -0.4 31.2 77 -3.9 25
08:15 1020 30.12 849 25.07 -0.5 31.1 78 -3.9 24.9
08:20 1020 30.12 849 25.07 -0.3 31.5 77 -3.9 25
08:25 1020 30.12 849 25.07 -0.2 31.7 77 -3.8 25.2
08:30 1020 30.12 849 25.07 -0.2 31.7 78 -3.6 25.5
08:35 1020 30.12 849 25.07 -0.3 31.5 78 -3.7 25.4
08:40 1020 30.12 849 25.07 -0.5 31.2 78 -3.9 25
08:45 1020 30.12 849 25.07 -0.3 31.4 78 -3.7 25.3
08:50 1020 30.12 849 25.07 -0.4 31.3 78 -3.9 25.1
08:55 1020 30.12 849 25.07 -0.4 31.3 78 -3.7 25.3
09:00 1020 30.12 849 25.07 -0.4 31.3 77 -3.9 25
09:05 1019 30.09 849 25.07 -0.5 31.2 78 -3.8 25.1
09:10 1019 30.09 849 25.07 -0.3 31.4 78 -3.8 25.2
09:15 1019 30.09 849 25.07 -0.2 31.6 78 -3.6 25.5
09:20 1019 30.09 848 25.04 -0.3 31.5 78 -3.6 25.5
09:25 1019 30.09 849 25.07 -0.3 31.5 78 -3.7 25.3
09:30 1019 30.09 848 25.04 -0.2 31.7 78 -3.6 25.5
09:35 1019 30.09 848 25.04 -0.2 31.6 78 -3.6 25.5
09:40 1019 30.09 848 25.04 -0.1 31.8 77 -3.6 25.5
09:45 1019 30.09 848 25.04 0 32 77 -3.6 25.5
09:50 1019 30.09 848 25.04 0.2 32.3 76 -3.6 25.5
09:55 1019 30.09 848 25.04 0.6 33 74 -3.5 25.7
10:00 1019 30.09 848 25.04 0.9 33.6 73 -3.3 26
10:05 1019 30.09 848 25.04 1.2 34.2 72 -3.3 26.1
10:10 1019 30.09 848 25.04 1.4 34.6 72 -3.1 26.4
10:15 1019 30.09 848 25.04 1.5 34.8 71 -3.1 26.4
10:20 1019 30.09 848 25.04 1.6 35 73 -2.7 27.1
10:25 1019 30.09 848 25.04 1.5 34.8 71 -3.1 26.5
10:30 1019 30.09 848 25.04 1.8 35.3 70 -3 26.7
10:35 1019 30.09 848 25.04 1.8 35.2 71 -2.8 26.9
10:40 1018 30.06 848 25.04 1.6 34.8 73 -2.8 26.9
10:45 1018 30.06 848 25.04 1.4 34.6 74 -2.7 27.1
10:50 1018 30.06 848 25.04 1.4 34.5 73 -3 26.6
10:55 1018 30.06 847 25.01 1.6 35 72 -2.9 26.7
11:00 1018 30.06 847 25.01 1.8 35.3 71 -2.8 26.9
11:05 1018 30.06 847 25.01 1.6 34.8 72 -2.9 26.9
11:10 1018 30.06 847 25.01 1.3 34.4 73 -2.9 26.8
11:15 1018 30.06 847 25.01 1.5 34.6 74 -2.6 27.3
11:20 1018 30.06 847 25.01 1 33.8 76 -2.8 27
11:25 1018 30.06 847 25.01 0.8 33.4 76 -2.9 26.7
11:30 1018 30.06 847 25.01 0.8 33.4 76 -2.9 26.7
11:35 1018 30.06 847 25.01 0.9 33.6 76 -3 26.6
11:40 1018 30.06 847 25.01 1.1 34 74 -3 26.6
11:45 1017 30.03 847 25.01 1.7 35.1 73 -2.7 27.1
11:50 1017 30.03 847 25.01 2 35.7 72 -2.6 27.4
11:55 1017 30.03 847 25.01 2.4 36.4 70 -2.5 27.5
12:00 1017 30.03 846 24.98 2.3 36.2 72 -2.3 27.9
12:05 1017 30.03 846 24.98 2.3 36.2 70 -2.6 27.4
12:10 1017 30.03 846 24.98 2.5 36.5 71 -2.2 28
12:15 1017 30.03 846 24.98 2.3 36.2 72 -2.2 28.1
12:20 1017 30.03 846 24.98 2.5 36.6 71 -2.2 28.1
12:25 1017 30.03 846 24.98 2.9 37.3 69 -2.1 28.1
12:30 1017 30.03 846 24.98 3.3 38 68 -1.9 28.5
12:35 1017 30.03 846 24.98 3.5 38.4 68 -1.8 28.8
12:40 1017 30.03 846 24.98 4.3 39.7 65 -1.7 28.9
12:45 1016 30 846 24.98 4.3 39.8 65 -1.6 29.1
12:50 1016 30 846 24.98 4.2 39.6 65 -1.8 28.8
12:55 1016 30 846 24.98 4.3 39.8 66 -1.5 29.4
13:00 1016 30 845 24.95 4.6 40.3 65 -1.5 29.4
13:05 1016 30 845 24.95 4.5 40.1 66 -1.4 29.5
13:10 1016 30 845 24.95 4.4 39.9 67 -1.2 29.8
13:15 1016 30 845 24.95 4.5 40.1 67 -1.1 30
13:20 1016 30 845 24.95 4.8 40.7 63 -1.5 29.3
13:25 1016 30 845 24.95 4.9 40.8 63 -1.5 29.4
13:30 1016 30 845 24.95 4.4 39.9 67 -1.1 30
13:35 1016 30 845 24.95 4.7 40.4 67 -0.9 30.4
13:40 1016 30 845 24.95 4 39.3 68 -1.2 29.8
13:45 1016 30 845 24.95 3.9 39 71 -1 30.3
13:50 1016 30 845 24.95 3.9 39.1 68 -1.4 29.5
13:55 1015 29.97 845 24.95 4.5 40.1 66 -1.3 29.7
14:00 1015 29.97 845 24.95 4.6 40.2 67 -1.1 30
14:05 1015 29.97 845 24.95 4.3 39.8 68 -1.1 30
14:10 1015 29.97 844 24.92 4.1 39.5 69 -1.1 30
14:15 1015 29.97 844 24.92 4 39.1 69 -1.3 29.7
14:20 1015 29.97 844 24.92 4.1 39.3 68 -1.3 29.7
14:25 1015 29.97 844 24.92 3.9 39 68 -1.4 29.5
14:30 1015 29.97 844 24.92 3.9 39.1 68 -1.4 29.6
14:35 1015 29.97 844 24.92 3.9 39.1 69 -1.2 29.8
14:40 1015 29.97 844 24.92 3.7 38.7 70 -1.3 29.7
14:45 1015 29.97 844 24.92 3.8 38.8 70 -1.2 29.8
14:50 1015 29.97 844 24.92 3.8 38.9 70 -1.1 30
14:55 1015 29.97 844 24.92 3.4 38.1 72 -1.3 29.7
15:00 1015 29.97 844 24.92 3.1 37.5 73 -1.4 29.6
15:05 1015 29.97 844 24.92 3 37.3 73 -1.4 29.5
15:10 1015 29.97 844 24.92 3.1 37.5 73 -1.2 29.8
15:15 1015 29.97 844 24.92 3.1 37.6 73 -1.3 29.7
15:20 1015 29.97 844 24.92 3 37.5 73 -1.4 29.5
15:25 1015 29.97 844 24.92 3 37.3 73 -1.3 29.6
15:30 1015 29.97 844 24.92 2.8 37.1 75 -1.2 29.8
15:35 1015 29.97 844 24.92 2.8 37 75 -1.3 29.6
15:40 1015 29.97 844 24.92 2.9 37.2 74 -1.3 29.7
15:45 1015 29.97 844 24.92 2.7 36.9 76 -1.2 29.9
15:50 1015 29.97 844 24.92 2.6 36.8 75 -1.4 29.5
15:55 1015 29.97 844 24.92 2.7 36.9 75 -1.3 29.7
16:00 1015 29.97 844 24.92 2.8 37.1 76 -1 30.2
16:05 1015 29.97 844 24.92 2.9 37.2 75 -1.1 30
16:10 1014 29.94 844 24.92 2.8 37.1 76 -1 30.2
16:15 1014 29.94 843 24.89 3 37.4 75 -1.1 30.1
16:20 1014 29.94 843 24.89 2.9 37.2 75 -1.1 30.1
16:25 1014 29.94 843 24.89 3 37.5 74 -1.1 30.1
16:30 1014 29.94 843 24.89 3.1 37.6 74 -1.1 30
16:35 1014 29.94 843 24.89 2.9 37.3 75 -1.1 30
16:40 1014 29.94 843 24.89 3 37.4 74 -1.2 29.9
16:45 1014 29.94 843 24.89 3.1 37.6 74 -1.2 29.9
16:50 1014 29.94 843 24.89 3.1 37.6 74 -1.1 29.9
16:55 1014 29.94 843 24.89 3.2 37.7 73 -1.2 29.8
17:00 1014 29.94 843 24.89 3.2 37.8 74 -0.9 30.4
17:05 1014 29.94 843 24.89 3.4 38.1 73 -0.9 30.3
17:10 1014 29.94 843 24.89 3.4 38.2 73 -1 30.2
17:15 1014 29.94 843 24.89 3.6 38.5 72 -0.9 30.3
17:20 1014 29.94 843 24.89 3.3 38 73 -1 30.3
17:25 1014 29.94 843 24.89 3.4 38.1 73 -1 30.2
17:30 1014 29.94 843 24.89 3.5 38.2 72 -1.1 30
17:35 1014 29.94 843 24.89 3.6 38.5 72 -0.9 30.4
17:40 1013 29.91 843 24.89 3.7 38.6 72 -0.9 30.3
17:45 1013 29.91 843 24.89 3.4 38.2 74 -0.8 30.5
17:50 1013 29.91 843 24.89 3.2 37.8 75 -0.9 30.4
17:55 1013 29.91 843 24.89 3.1 37.6 75 -0.9 30.3
18:00 1013 29.91 842 24.86 3 37.4 76 -0.9 30.5
18:05 1013 29.91 842 24.86 2.9 37.2 75 -1.1 30.1
18:10 1013 29.91 842 24.86 3 37.4 74 -1.1 29.9
18:15 1013 29.91 842 24.86 3 37.3 74 -1.2 29.9
18:20 1013 29.91 842 24.86 2.8 37.1 75 -1.2 29.8
18:25 1013 29.91 842 24.86 2.6 36.8 75 -1.3 29.7
18:30 1013 29.91 842 24.86 2.6 36.7 76 -1.3 29.7
18:35 1013 29.91 842 24.86 2.5 36.5 76 -1.3 29.6
18:40 1013 29.91 842 24.86 2.3 36.2 77 -1.4 29.5
18:45 1013 29.91 842 24.86 2.3 36.1 77 -1.4 29.5
18:50 1013 29.91 842 24.86 2.2 36 77 -1.4 29.5
18:55 1013 29.91 842 24.86 2.2 36 77 -1.4 29.4
19:00 1013 29.91 842 24.86 2.2 35.9 77 -1.4 29.4
19:05 1013 29.91 842 24.86 2.1 35.8 78 -1.4 29.5
19:10 1013 29.91 842 24.86 2 35.7 78 -1.4 29.4
19:15 1013 29.91 842 24.86 2 35.6 78 -1.4 29.4
19:20 1013 29.91 842 24.86 2 35.7 78 -1.4 29.4
19:25 1013 29.91 842 24.86 2.1 35.8 77 -1.5 29.3
19:30 1013 29.91 842 24.86 2.2 35.9 77 -1.5 29.4
19:35 1012 29.88 842 24.86 2.2 36 76 -1.5 29.3
19:40 1013 29.91 842 24.86 2.3 36.1 77 -1.4 29.5
19:45 1012 29.88 842 24.86 2.3 36.2 76 -1.5 29.3
19:50 1012 29.88 841 24.83 2.4 36.4 75 -1.5 29.2
19:55 1012 29.88 841 24.83 2.5 36.5 75 -1.5 29.3
20:00 1012 29.88 842 24.86 2.5 36.5 75 -1.5 29.3
20:05 1012 29.88 841 24.83 2.6 36.6 74 -1.6 29.1
20:10 1012 29.88 841 24.83 2.7 36.8 74 -1.6 29.2
20:15 1012 29.88 841 24.83 2.6 36.7 74 -1.6 29.2
20:20 1012 29.88 841 24.83 2.6 36.7 74 -1.6 29.2
20:25 1012 29.88 841 24.83 2.5 36.5 75 -1.5 29.2
20:30 1012 29.88 841 24.83 2.4 36.4 75 -1.6 29.2
20:35 1012 29.88 841 24.83 2.4 36.4 75 -1.6 29.1
20:40 1012 29.88 841 24.83 2.5 36.5 75 -1.6 29.2
20:45 1012 29.88 841 24.83 2.4 36.4 75 -1.6 29.1
20:50 1012 29.88 841 24.83 2.3 36.2 75 -1.6 29.1
20:55 1012 29.88 841 24.83 2.3 36.1 75 -1.7 28.9
21:00 1012 29.88 841 24.83 2.3 36.1 75 -1.7 28.9
21:05 1012 29.88 841 24.83 2.2 35.9 75 -1.7 28.9
21:10 1012 29.88 841 24.83 2 35.7 76 -1.8 28.8
21:15 1012 29.88 841 24.83 1.9 35.5 76 -1.8 28.8
21:20 1012 29.88 841 24.83 1.9 35.4 77 -1.8 28.8
21:25 1012 29.88 841 24.83 1.8 35.2 77 -1.8 28.7
21:30 1012 29.88 841 24.83 1.8 35.3 77 -1.8 28.7
21:35 1012 29.88 841 24.83 1.9 35.5 76 -1.9 28.6
21:40 1012 29.88 841 24.83 2 35.7 75 -1.8 28.7
21:45 1012 29.88 841 24.83 2.3 36.1 74 -1.9 28.6
21:50 1012 29.88 841 24.83 2.2 35.9 75 -1.8 28.7
21:55 1012 29.88 841 24.83 2.1 35.8 75 -1.8 28.7
22:00 1011 29.85 841 24.83 2.1 35.8 75 -1.8 28.7
22:05 1011 29.85 841 24.83 2.1 35.8 75 -1.8 28.7
22:10 1011 29.85 841 24.83 2 35.5 75 -1.9 28.5
22:15 1012 29.88 841 24.83 2 35.5 75 -2 28.4
22:20 1012 29.88 841 24.83 2 35.6 74 -2.1 28.3
22:25 1012 29.88 841 24.83 2.1 35.8 74 -2.1 28.3
22:30 1012 29.88 841 24.83 2.4 36.3 72 -2.1 28.2
22:35 1012 29.88 841 24.83 2.5 36.4 73 -1.9 28.5
22:40 1012 29.88 841 24.83 2.7 36.8 71 -2 28.4
22:45 1012 29.88 841 24.83 2.7 36.9 71 -2 28.4
22:50 1012 29.88 841 24.83 2.6 36.7 72 -2 28.5
22:55 1012 29.88 841 24.83 2.4 36.3 73 -1.9 28.6
23:00 1012 29.88 841 24.83 2.3 36.2 74 -1.8 28.8
23:05 1012 29.88 841 24.83 2.3 36.1 75 -1.6 29.1
23:10 1012 29.88 841 24.83 2.3 36.1 75 -1.7 29
23:15 1012 29.88 841 24.83 2.4 36.3 75 -1.6 29.1
23:20 1012 29.88 841 24.83 2.2 36 77 -1.3 29.6
23:25 1012 29.88 841 24.83 1.9 35.3 79 -1.4 29.5
23:30 1012 29.88 842 24.86 1.6 34.9 80 -1.4 29.4
23:35 1012 29.88 842 24.86 1.7 35 80 -1.4 29.4
23:40 1013 29.91 842 24.86 1.7 35 80 -1.4 29.4
23:45 1013 29.91 842 24.86 1.8 35.2 79 -1.4 29.4
23:50 1012 29.88 842 24.86 1.8 35.3 79 -1.4 29.5
23:55 1012 29.88 842 24.86 1.7 35 80 -1.4 29.5
24:00 1012 29.88 841 24.83 1.5 34.7 81 -1.5 29.4